Merricourt, North Dakota
Current Conditions -  °F | °C
As of 2:56 AM on Sunday 26 Oct 2014 (Local Time) from KJMS Reporting Station
Clear Clear  
Wind Chill: -1°   Ceiling: Unl
Heat Index:   Visibility: 10mi
Dew Point: -2°   Wind: 7mph
Humidity: 76%   Direction: 150°SSE
Pressure: 29.92"   Gusts: NA
Location:  46.2592°N, 98.7407°W
Report Text: KJMS 260756Z AUTO 15006KT 10SM CLR 02/M02 A2992 RMK AO2 SLP138 T00221017
Loading
Personal Weather Stations






























Interactive Weather Map
Tropical Storm Tracking
New forecast layout! Learn more

10-Day Weather Forecast

Advertisements
Track Severe Weather on mobile